sensor_id;sensor_type;location;lat;lon;timestamp;temperature;humidity
1806;DHT22;901;48.142;11.516;2023-05-10T00:01:28;14.30;99.90
1806;DHT22;901;48.142;11.516;2023-05-10T00:03:54;14.30;99.90
1806;DHT22;901;48.142;11.516;2023-05-10T00:06:21;14.30;99.90
1806;DHT22;901;48.142;11.516;2023-05-10T00:08:48;14.30;99.90
1806;DHT22;901;48.142;11.516;2023-05-10T00:11:15;14.30;99.90
1806;DHT22;901;48.142;11.516;2023-05-10T00:13:43;14.20;99.90
1806;DHT22;901;48.142;11.516;2023-05-10T00:16:10;14.20;99.90
1806;DHT22;901;48.142;11.516;2023-05-10T00:18:38;14.20;99.90
1806;DHT22;901;48.142;11.516;2023-05-10T00:21:05;14.20;99.90
1806;DHT22;901;48.142;11.516;2023-05-10T00:23:32;14.10;99.90
1806;DHT22;901;48.142;11.516;2023-05-10T00:25:59;14.10;99.90
1806;DHT22;901;48.142;11.516;2023-05-10T00:28:27;14.20;99.90
1806;DHT22;901;48.142;11.516;2023-05-10T00:30:56;14.20;99.90
1806;DHT22;901;48.142;11.516;2023-05-10T00:33:23;14.10;99.90
1806;DHT22;901;48.142;11.516;2023-05-10T00:35:49;14.20;99.90
1806;DHT22;901;48.142;11.516;2023-05-10T00:38:16;14.10;99.90
1806;DHT22;901;48.142;11.516;2023-05-10T00:40:43;14.10;99.90
1806;DHT22;901;48.142;11.516;2023-05-10T00:43:10;14.10;99.90
1806;DHT22;901;48.142;11.516;2023-05-10T00:45:37;14.10;99.90
1806;DHT22;901;48.142;11.516;2023-05-10T00:48:08;14.00;99.90
1806;DHT22;901;48.142;11.516;2023-05-10T00:50:35;14.00;99.90
1806;DHT22;901;48.142;11.516;2023-05-10T00:53:02;14.10;99.90
1806;DHT22;901;48.142;11.516;2023-05-10T00:55:30;14.10;99.90
1806;DHT22;901;48.142;11.516;2023-05-10T00:57:57;14.00;99.90
1806;DHT22;901;48.142;11.516;2023-05-10T01:00:24;14.00;99.90
1806;DHT22;901;48.142;11.516;2023-05-10T01:02:52;14.00;99.90
1806;DHT22;901;48.142;11.516;2023-05-10T01:05:21;14.00;99.90
1806;DHT22;901;48.142;11.516;2023-05-10T01:07:48;14.00;99.90
1806;DHT22;901;48.142;11.516;2023-05-10T01:10:15;14.00;99.90
1806;DHT22;901;48.142;11.516;2023-05-10T01:12:43;14.00;99.90
1806;DHT22;901;48.142;11.516;2023-05-10T01:15:12;14.00;99.90
1806;DHT22;901;48.142;11.516;2023-05-10T01:17:40;14.00;99.90
1806;DHT22;901;48.142;11.516;2023-05-10T01:20:09;14.00;99.90
1806;DHT22;901;48.142;11.516;2023-05-10T01:22:56;14.00;99.90
1806;DHT22;901;48.142;11.516;2023-05-10T01:25:44;14.00;99.90
1806;DHT22;901;48.142;11.516;2023-05-10T01:31:34;13.90;99.90
1806;DHT22;901;48.142;11.516;2023-05-10T01:34:10;13.90;99.90
1806;DHT22;901;48.142;11.516;2023-05-10T01:36:45;14.00;99.90
1806;DHT22;901;48.142;11.516;2023-05-10T01:39:16;13.90;99.90
1806;DHT22;901;48.142;11.516;2023-05-10T01:41:49;13.90;99.90
1806;DHT22;901;48.142;11.516;2023-05-10T01:44:23;14.00;99.90
1806;DHT22;901;48.142;11.516;2023-05-10T01:46:54;14.00;99.90
1806;DHT22;901;48.142;11.516;2023-05-10T01:49:27;13.90;99.90
1806;DHT22;901;48.142;11.516;2023-05-10T01:52:00;13.90;99.90
1806;DHT22;901;48.142;11.516;2023-05-10T01:54:33;13.90;99.90
1806;DHT22;901;48.142;11.516;2023-05-10T01:57:05;13.90;99.90
1806;DHT22;901;48.142;11.516;2023-05-10T01:59:34;13.90;99.90
1806;DHT22;901;48.142;11.516;2023-05-10T02:02:05;13.90;99.90
1806;DHT22;901;48.142;11.516;2023-05-10T02:04:35;13.90;99.90
1806;DHT22;901;48.142;11.516;2023-05-10T02:07:05;13.90;99.90
1806;DHT22;901;48.142;11.516;2023-05-10T02:09:33;13.90;99.90
1806;DHT22;901;48.142;11.516;2023-05-10T02:12:02;13.90;99.90
1806;DHT22;901;48.142;11.516;2023-05-10T02:14:33;13.90;99.90
1806;DHT22;901;48.142;11.516;2023-05-10T02:17:02;13.80;99.90
1806;DHT22;901;48.142;11.516;2023-05-10T02:19:31;13.80;99.90
1806;DHT22;901;48.142;11.516;2023-05-10T02:22:01;13.80;99.90
1806;DHT22;901;48.142;11.516;2023-05-10T02:24:28;13.70;99.90
1806;DHT22;901;48.142;11.516;2023-05-10T02:26:56;13.80;99.90
1806;DHT22;901;48.142;11.516;2023-05-10T02:29:24;13.70;99.90
1806;DHT22;901;48.142;11.516;2023-05-10T02:31:53;13.70;99.90
1806;DHT22;901;48.142;11.516;2023-05-10T02:34:22;13.80;99.90
1806;DHT22;901;48.142;11.516;2023-05-10T02:36:51;13.70;99.90
1806;DHT22;901;48.142;11.516;2023-05-10T02:39:20;13.60;99.90
1806;DHT22;901;48.142;11.516;2023-05-10T02:41:49;13.70;99.90
1806;DHT22;901;48.142;11.516;2023-05-10T02:44:18;13.70;99.90
1806;DHT22;901;48.142;11.516;2023-05-10T02:46:46;13.60;99.90
1806;DHT22;901;48.142;11.516;2023-05-10T02:49:13;13.60;99.90
1806;DHT22;901;48.142;11.516;2023-05-10T02:51:44;13.60;99.90
1806;DHT22;901;48.142;11.516;2023-05-10T02:54:14;13.60;99.90
1806;DHT22;901;48.142;11.516;2023-05-10T02:56:51;13.60;99.90
1806;DHT22;901;48.142;11.516;2023-05-10T02:59:20;13.70;99.90
1806;DHT22;901;48.142;11.516;2023-05-10T03:01:47;13.60;99.90
1806;DHT22;901;48.142;11.516;2023-05-10T03:04:13;13.70;99.90
1806;DHT22;901;48.142;11.516;2023-05-10T03:06:42;13.60;99.90
1806;DHT22;901;48.142;11.516;2023-05-10T03:09:09;13.80;99.90
1806;DHT22;901;48.142;11.516;2023-05-10T03:11:47;13.70;99.90
1806;DHT22;901;48.142;11.516;2023-05-10T03:14:25;13.70;99.90
1806;DHT22;901;48.142;11.516;2023-05-10T03:16:57;13.60;99.90
1806;DHT22;901;48.142;11.516;2023-05-10T03:19:29;13.60;99.90
1806;DHT22;901;48.142;11.516;2023-05-10T03:21:59;13.60;99.90
1806;DHT22;901;48.142;11.516;2023-05-10T03:24:31;13.60;99.90
1806;DHT22;901;48.142;11.516;2023-05-10T03:27:02;13.60;99.90
1806;DHT22;901;48.142;11.516;2023-05-10T03:29:30;13.60;99.90
1806;DHT22;901;48.142;11.516;2023-05-10T03:31:58;13.70;99.90
1806;DHT22;901;48.142;11.516;2023-05-10T03:34:25;13.60;99.90
1806;DHT22;901;48.142;11.516;2023-05-10T03:36:52;14.50;99.90
1806;DHT22;901;48.142;11.516;2023-05-10T03:39:19;13.60;99.90
1806;DHT22;901;48.142;11.516;2023-05-10T03:41:46;13.60;99.90
1806;DHT22;901;48.142;11.516;2023-05-10T03:44:15;13.60;99.90
1806;DHT22;901;48.142;11.516;2023-05-10T03:46:41;13.30;99.90
1806;DHT22;901;48.142;11.516;2023-05-10T03:49:08;13.60;99.90
1806;DHT22;901;48.142;11.516;2023-05-10T03:51:35;13.60;99.90
1806;DHT22;901;48.142;11.516;2023-05-10T03:54:02;13.60;99.90
1806;DHT22;901;48.142;11.516;2023-05-10T03:56:29;13.60;99.90
1806;DHT22;901;48.142;11.516;2023-05-10T03:58:55;13.60;99.90
1806;DHT22;901;48.142;11.516;2023-05-10T04:01:24;13.70;99.90
1806;DHT22;901;48.142;11.516;2023-05-10T04:03:50;13.70;99.90
1806;DHT22;901;48.142;11.516;2023-05-10T04:06:17;13.60;99.90
1806;DHT22;901;48.142;11.516;2023-05-10T04:08:44;13.60;99.90
1806;DHT22;901;48.142;11.516;2023-05-10T04:11:11;13.70;99.90
1806;DHT22;901;48.142;11.516;2023-05-10T04:13:39;13.60;99.90
1806;DHT22;901;48.142;11.516;2023-05-10T04:16:06;13.70;99.90
1806;DHT22;901;48.142;11.516;2023-05-10T04:18:34;13.70;99.90
1806;DHT22;901;48.142;11.516;2023-05-10T04:21:01;13.80;99.90
1806;DHT22;901;48.142;11.516;2023-05-10T04:23:28;13.70;99.90
1806;DHT22;901;48.142;11.516;2023-05-10T04:26:00;13.70;99.90
1806;DHT22;901;48.142;11.516;2023-05-10T04:28:27;13.80;99.90
1806;DHT22;901;48.142;11.516;2023-05-10T04:31:00;13.80;99.90
1806;DHT22;901;48.142;11.516;2023-05-10T04:33:27;13.80;99.90
1806;DHT22;901;48.142;11.516;2023-05-10T04:35:56;13.80;99.90
1806;DHT22;901;48.142;11.516;2023-05-10T04:38:22;13.90;99.90
1806;DHT22;901;48.142;11.516;2023-05-10T04:40:50;13.90;99.90
1806;DHT22;901;48.142;11.516;2023-05-10T04:43:16;13.90;99.90
1806;DHT22;901;48.142;11.516;2023-05-10T04:45:43;13.90;99.90
1806;DHT22;901;48.142;11.516;2023-05-10T04:48:10;13.90;99.90
1806;DHT22;901;48.142;11.516;2023-05-10T04:50:37;13.90;99.90
1806;DHT22;901;48.142;11.516;2023-05-10T04:53:05;13.80;99.90
1806;DHT22;901;48.142;11.516;2023-05-10T04:55:32;13.70;99.90
1806;DHT22;901;48.142;11.516;2023-05-10T04:57:59;13.70;99.90
1806;DHT22;901;48.142;11.516;2023-05-10T05:00:26;13.60;99.90
1806;DHT22;901;48.142;11.516;2023-05-10T05:02:52;13.50;99.90
1806;DHT22;901;48.142;11.516;2023-05-10T05:05:19;13.50;99.90
1806;DHT22;901;48.142;11.516;2023-05-10T05:07:46;13.40;99.90
1806;DHT22;901;48.142;11.516;2023-05-10T05:10:14;13.40;99.90
1806;DHT22;901;48.142;11.516;2023-05-10T05:12:41;13.40;99.90
1806;DHT22;901;48.142;11.516;2023-05-10T05:15:08;13.20;99.90
1806;DHT22;901;48.142;11.516;2023-05-10T05:17:36;13.20;99.90
1806;DHT22;901;48.142;11.516;2023-05-10T05:20:03;13.10;99.90
1806;DHT22;901;48.142;11.516;2023-05-10T05:22:30;13.10;99.90
1806;DHT22;901;48.142;11.516;2023-05-10T05:24:57;13.10;99.90
1806;DHT22;901;48.142;11.516;2023-05-10T05:27:25;13.00;99.90
1806;DHT22;901;48.142;11.516;2023-05-10T05:29:53;13.40;99.90
1806;DHT22;901;48.142;11.516;2023-05-10T05:32:20;12.90;99.90
1806;DHT22;901;48.142;11.516;2023-05-10T05:34:47;12.60;99.90
1806;DHT22;901;48.142;11.516;2023-05-10T05:37:14;12.80;99.90
1806;DHT22;901;48.142;11.516;2023-05-10T05:39:41;12.80;99.90
1806;DHT22;901;48.142;11.516;2023-05-10T05:42:09;12.70;99.90
1806;DHT22;901;48.142;11.516;2023-05-10T05:44:37;12.60;99.90
1806;DHT22;901;48.142;11.516;2023-05-10T05:47:05;12.50;99.90
1806;DHT22;901;48.142;11.516;2023-05-10T05:49:32;11.50;99.90
1806;DHT22;901;48.142;11.516;2023-05-10T05:51:59;12.40;99.90
1806;DHT22;901;48.142;11.516;2023-05-10T05:54:26;12.50;99.90
1806;DHT22;901;48.142;11.516;2023-05-10T05:56:54;12.60;99.90
1806;DHT22;901;48.142;11.516;2023-05-10T05:59:21;12.70;99.90
1806;DHT22;901;48.142;11.516;2023-05-10T06:01:49;12.80;99.90
1806;DHT22;901;48.142;11.516;2023-05-10T06:04:16;12.90;99.90
1806;DHT22;901;48.142;11.516;2023-05-10T06:06:44;13.00;99.90
1806;DHT22;901;48.142;11.516;2023-05-10T06:09:11;13.10;99.90
1806;DHT22;901;48.142;11.516;2023-05-10T06:11:38;13.30;99.90
1806;DHT22;901;48.142;11.516;2023-05-10T06:14:05;13.40;99.90
1806;DHT22;901;48.142;11.516;2023-05-10T06:16:33;13.50;99.90
1806;DHT22;901;48.142;11.516;2023-05-10T06:19:02;13.50;99.90
1806;DHT22;901;48.142;11.516;2023-05-10T06:21:29;13.50;99.90
1806;DHT22;901;48.142;11.516;2023-05-10T06:23:55;13.50;99.90
1806;DHT22;901;48.142;11.516;2023-05-10T06:26:22;13.70;99.90
1806;DHT22;901;48.142;11.516;2023-05-10T06:28:49;13.70;99.90
1806;DHT22;901;48.142;11.516;2023-05-10T06:31:16;13.80;99.90
1806;DHT22;901;48.142;11.516;2023-05-10T06:33:43;13.80;99.90
1806;DHT22;901;48.142;11.516;2023-05-10T06:36:11;13.80;99.90
1806;DHT22;901;48.142;11.516;2023-05-10T06:38:38;13.80;99.90
1806;DHT22;901;48.142;11.516;2023-05-10T06:41:05;13.80;99.90
1806;DHT22;901;48.142;11.516;2023-05-10T06:43:32;13.90;99.90
1806;DHT22;901;48.142;11.516;2023-05-10T06:45:59;13.90;99.90
1806;DHT22;901;48.142;11.516;2023-05-10T06:48:25;13.90;99.90
1806;DHT22;901;48.142;11.516;2023-05-10T06:50:53;14.00;99.90
1806;DHT22;901;48.142;11.516;2023-05-10T06:53:21;14.20;99.90
1806;DHT22;901;48.142;11.516;2023-05-10T06:55:49;14.20;99.90
1806;DHT22;901;48.142;11.516;2023-05-10T06:58:16;14.30;99.90
1806;DHT22;901;48.142;11.516;2023-05-10T07:00:43;14.50;99.90
1806;DHT22;901;48.142;11.516;2023-05-10T07:03:10;14.50;99.90
1806;DHT22;901;48.142;11.516;2023-05-10T07:05:37;14.70;99.90
1806;DHT22;901;48.142;11.516;2023-05-10T07:08:04;14.80;99.90
1806;DHT22;901;48.142;11.516;2023-05-10T07:10:32;14.90;99.90
1806;DHT22;901;48.142;11.516;2023-05-10T07:12:59;14.90;99.90
1806;DHT22;901;48.142;11.516;2023-05-10T07:15:26;15.20;99.90
1806;DHT22;901;48.142;11.516;2023-05-10T07:17:53;15.40;99.90
1806;DHT22;901;48.142;11.516;2023-05-10T07:20:20;15.70;99.90
1806;DHT22;901;48.142;11.516;2023-05-10T07:22:47;15.70;99.90
1806;DHT22;901;48.142;11.516;2023-05-10T07:25:14;15.80;99.90
1806;DHT22;901;48.142;11.516;2023-05-10T07:27:42;15.90;99.90
1806;DHT22;901;48.142;11.516;2023-05-10T07:30:10;16.10;99.90
1806;DHT22;901;48.142;11.516;2023-05-10T07:32:37;16.10;99.90
1806;DHT22;901;48.142;11.516;2023-05-10T07:35:05;16.10;99.90
1806;DHT22;901;48.142;11.516;2023-05-10T07:37:32;16.20;99.90
1806;DHT22;901;48.142;11.516;2023-05-10T07:39:59;16.30;99.90
1806;DHT22;901;48.142;11.516;2023-05-10T07:42:25;16.50;99.90
1806;DHT22;901;48.142;11.516;2023-05-10T07:44:54;16.30;99.90
1806;DHT22;901;48.142;11.516;2023-05-10T07:47:20;16.50;99.90
1806;DHT22;901;48.142;11.516;2023-05-10T07:49:47;16.60;99.90
1806;DHT22;901;48.142;11.516;2023-05-10T07:52:14;16.80;99.90
1806;DHT22;901;48.142;11.516;2023-05-10T07:54:41;16.90;99.90
1806;DHT22;901;48.142;11.516;2023-05-10T07:57:07;16.70;99.90
1806;DHT22;901;48.142;11.516;2023-05-10T07:59:34;16.90;99.90
1806;DHT22;901;48.142;11.516;2023-05-10T08:02:03;17.10;99.90
1806;DHT22;901;48.142;11.516;2023-05-10T08:04:30;17.30;99.90
1806;DHT22;901;48.142;11.516;2023-05-10T08:06:56;17.60;99.90
1806;DHT22;901;48.142;11.516;2023-05-10T08:09:23;17.80;99.90
1806;DHT22;901;48.142;11.516;2023-05-10T08:11:50;17.70;99.90
1806;DHT22;901;48.142;11.516;2023-05-10T08:14:17;17.80;99.90
1806;DHT22;901;48.142;11.516;2023-05-10T08:16:43;17.70;99.90
1806;DHT22;901;48.142;11.516;2023-05-10T08:19:12;17.70;99.90
1806;DHT22;901;48.142;11.516;2023-05-10T08:21:39;17.60;99.90
1806;DHT22;901;48.142;11.516;2023-05-10T08:24:07;17.60;99.90
1806;DHT22;901;48.142;11.516;2023-05-10T08:26:34;17.50;99.90
1806;DHT22;901;48.142;11.516;2023-05-10T08:29:01;17.40;99.90
1806;DHT22;901;48.142;11.516;2023-05-10T08:31:28;17.10;99.90
1806;DHT22;901;48.142;11.516;2023-05-10T08:33:55;16.80;99.90
1806;DHT22;901;48.142;11.516;2023-05-10T08:36:23;16.20;99.90
1806;DHT22;901;48.142;11.516;2023-05-10T08:38:51;15.90;99.90
1806;DHT22;901;48.142;11.516;2023-05-10T08:41:19;15.80;99.90
1806;DHT22;901;48.142;11.516;2023-05-10T08:43:47;15.80;99.90
1806;DHT22;901;48.142;11.516;2023-05-10T08:46:16;15.80;99.90
1806;DHT22;901;48.142;11.516;2023-05-10T08:48:44;15.90;99.90
1806;DHT22;901;48.142;11.516;2023-05-10T08:51:13;15.90;99.90
1806;DHT22;901;48.142;11.516;2023-05-10T08:53:43;15.90;99.90
1806;DHT22;901;48.142;11.516;2023-05-10T08:56:11;15.80;99.90
1806;DHT22;901;48.142;11.516;2023-05-10T08:58:38;15.70;99.90
1806;DHT22;901;48.142;11.516;2023-05-10T09:01:05;15.70;99.90
1806;DHT22;901;48.142;11.516;2023-05-10T09:03:32;15.80;99.90
1806;DHT22;901;48.142;11.516;2023-05-10T09:05:59;15.90;99.90
1806;DHT22;901;48.142;11.516;2023-05-10T09:08:26;16.00;99.90
1806;DHT22;901;48.142;11.516;2023-05-10T09:10:55;16.20;99.90
1806;DHT22;901;48.142;11.516;2023-05-10T09:13:23;16.60;99.90
1806;DHT22;901;48.142;11.516;2023-05-10T09:15:50;16.90;99.90
1806;DHT22;901;48.142;11.516;2023-05-10T09:18:17;17.10;99.90
1806;DHT22;901;48.142;11.516;2023-05-10T09:20:44;17.20;99.90
1806;DHT22;901;48.142;11.516;2023-05-10T09:23:11;17.00;99.90
1806;DHT22;901;48.142;11.516;2023-05-10T09:25:38;16.90;99.90
1806;DHT22;901;48.142;11.516;2023-05-10T09:28:08;16.80;99.90
1806;DHT22;901;48.142;11.516;2023-05-10T09:30:35;16.90;99.90
1806;DHT22;901;48.142;11.516;2023-05-10T09:33:02;17.00;99.90
1806;DHT22;901;48.142;11.516;2023-05-10T09:35:30;17.20;99.90
1806;DHT22;901;48.142;11.516;2023-05-10T09:38:01;17.30;99.90
1806;DHT22;901;48.142;11.516;2023-05-10T09:40:29;17.70;99.90
1806;DHT22;901;48.142;11.516;2023-05-10T09:42:57;17.90;99.90
1806;DHT22;901;48.142;11.516;2023-05-10T09:45:27;18.10;99.90
1806;DHT22;901;48.142;11.516;2023-05-10T09:47:54;17.90;99.90
1806;DHT22;901;48.142;11.516;2023-05-10T09:50:21;17.70;99.90
1806;DHT22;901;48.142;11.516;2023-05-10T09:52:50;17.70;99.90
1806;DHT22;901;48.142;11.516;2023-05-10T09:55:18;17.80;99.90
1806;DHT22;901;48.142;11.516;2023-05-10T09:57:46;17.90;99.90
1806;DHT22;901;48.142;11.516;2023-05-10T10:00:18;18.10;99.90
1806;DHT22;901;48.142;11.516;2023-05-10T10:02:48;18.40;99.90
1806;DHT22;901;48.142;11.516;2023-05-10T10:05:15;18.30;99.90
1806;DHT22;901;48.142;11.516;2023-05-10T10:07:42;18.20;99.90
1806;DHT22;901;48.142;11.516;2023-05-10T10:10:09;18.20;99.90
1806;DHT22;901;48.142;11.516;2023-05-10T10:12:40;18.40;99.90
1806;DHT22;901;48.142;11.516;2023-05-10T10:15:08;18.50;99.90
1806;DHT22;901;48.142;11.516;2023-05-10T10:17:36;18.60;99.90
1806;DHT22;901;48.142;11.516;2023-05-10T10:20:06;18.60;99.90
1806;DHT22;901;48.142;11.516;2023-05-10T10:22:34;18.30;99.90
1806;DHT22;901;48.142;11.516;2023-05-10T10:25:00;18.10;99.90
1806;DHT22;901;48.142;11.516;2023-05-10T10:27:35;18.10;99.90
1806;DHT22;901;48.142;11.516;2023-05-10T10:30:10;18.10;99.90
1806;DHT22;901;48.142;11.516;2023-05-10T10:32:54;18.40;99.90
1806;DHT22;901;48.142;11.516;2023-05-10T10:35:28;18.80;99.90
1806;DHT22;901;48.142;11.516;2023-05-10T10:37:55;18.90;99.90
1806;DHT22;901;48.142;11.516;2023-05-10T10:40:24;18.60;99.90
1806;DHT22;901;48.142;11.516;2023-05-10T10:42:52;18.20;99.90
1806;DHT22;901;48.142;11.516;2023-05-10T10:45:20;18.00;99.90
1806;DHT22;901;48.142;11.516;2023-05-10T10:47:47;17.80;99.90
1806;DHT22;901;48.142;11.516;2023-05-10T10:50:15;17.70;99.90
1806;DHT22;901;48.142;11.516;2023-05-10T10:52:44;17.60;99.90
1806;DHT22;901;48.142;11.516;2023-05-10T10:55:12;17.60;99.90
1806;DHT22;901;48.142;11.516;2023-05-10T10:57:49;17.40;99.90
1806;DHT22;901;48.142;11.516;2023-05-10T11:00:28;17.20;99.90
1806;DHT22;901;48.142;11.516;2023-05-10T11:02:57;17.20;99.90
1806;DHT22;901;48.142;11.516;2023-05-10T11:05:46;17.20;99.90
1806;DHT22;901;48.142;11.516;2023-05-10T11:08:17;17.20;99.90
1806;DHT22;901;48.142;11.516;2023-05-10T11:11:02;17.60;99.90
1806;DHT22;901;48.142;11.516;2023-05-10T11:13:32;18.00;99.90
1806;DHT22;901;48.142;11.516;2023-05-10T11:15:59;18.40;99.90
1806;DHT22;901;48.142;11.516;2023-05-10T11:18:36;18.60;99.90
1806;DHT22;901;48.142;11.516;2023-05-10T11:21:03;18.70;99.90
1806;DHT22;901;48.142;11.516;2023-05-10T11:23:47;18.60;99.90
1806;DHT22;901;48.142;11.516;2023-05-10T11:26:14;18.40;99.90
1806;DHT22;901;48.142;11.516;2023-05-10T11:28:41;18.00;99.90
1806;DHT22;901;48.142;11.516;2023-05-10T11:31:08;17.50;99.90
1806;DHT22;901;48.142;11.516;2023-05-10T11:33:42;16.90;99.90
1806;DHT22;901;48.142;11.516;2023-05-10T11:36:11;16.00;99.90
1806;DHT22;901;48.142;11.516;2023-05-10T11:38:39;15.40;99.90
1806;DHT22;901;48.142;11.516;2023-05-10T11:41:08;15.00;99.90
1806;DHT22;901;48.142;11.516;2023-05-10T11:43:37;14.70;99.90
1806;DHT22;901;48.142;11.516;2023-05-10T11:46:05;14.50;99.90
1806;DHT22;901;48.142;11.516;2023-05-10T11:48:32;14.40;99.90
1806;DHT22;901;48.142;11.516;2023-05-10T11:51:00;14.30;99.90
1806;DHT22;901;48.142;11.516;2023-05-10T11:53:27;14.30;99.90
1806;DHT22;901;48.142;11.516;2023-05-10T11:55:58;14.20;99.90
1806;DHT22;901;48.142;11.516;2023-05-10T11:58:28;14.10;99.90
1806;DHT22;901;48.142;11.516;2023-05-10T12:00:55;13.90;99.90
1806;DHT22;901;48.142;11.516;2023-05-10T12:03:22;13.80;99.90
1806;DHT22;901;48.142;11.516;2023-05-10T12:05:49;13.70;99.90
1806;DHT22;901;48.142;11.516;2023-05-10T12:08:21;13.90;99.90
1806;DHT22;901;48.142;11.516;2023-05-10T12:10:48;13.80;99.90
1806;DHT22;901;48.142;11.516;2023-05-10T12:13:17;13.70;99.90
1806;DHT22;901;48.142;11.516;2023-05-10T12:15:46;13.80;99.90
1806;DHT22;901;48.142;11.516;2023-05-10T12:18:13;13.80;99.90
1806;DHT22;901;48.142;11.516;2023-05-10T12:20:41;13.80;99.90
1806;DHT22;901;48.142;11.516;2023-05-10T12:23:09;13.90;99.90
1806;DHT22;901;48.142;11.516;2023-05-10T12:25:37;14.00;99.90
1806;DHT22;901;48.142;11.516;2023-05-10T12:28:05;14.20;99.90
1806;DHT22;901;48.142;11.516;2023-05-10T12:30:35;14.30;99.90
1806;DHT22;901;48.142;11.516;2023-05-10T12:33:07;14.40;99.90
1806;DHT22;901;48.142;11.516;2023-05-10T12:35:44;14.60;99.90
1806;DHT22;901;48.142;11.516;2023-05-10T12:38:25;14.70;99.90
1806;DHT22;901;48.142;11.516;2023-05-10T12:40:54;14.80;99.90
1806;DHT22;901;48.142;11.516;2023-05-10T12:43:21;14.80;99.90
1806;DHT22;901;48.142;11.516;2023-05-10T12:45:49;14.70;99.90
1806;DHT22;901;48.142;11.516;2023-05-10T12:48:16;15.50;99.90
1806;DHT22;901;48.142;11.516;2023-05-10T12:50:42;14.90;99.90
1806;DHT22;901;48.142;11.516;2023-05-10T12:53:09;14.80;99.90
1806;DHT22;901;48.142;11.516;2023-05-10T12:55:36;14.80;99.90
1806;DHT22;901;48.142;11.516;2023-05-10T12:58:03;14.80;99.90
1806;DHT22;901;48.142;11.516;2023-05-10T13:00:30;15.10;99.90
1806;DHT22;901;48.142;11.516;2023-05-10T13:02:58;15.00;99.90
1806;DHT22;901;48.142;11.516;2023-05-10T13:05:25;14.90;99.90
1806;DHT22;901;48.142;11.516;2023-05-10T13:07:51;15.10;99.90
1806;DHT22;901;48.142;11.516;2023-05-10T13:10:18;15.40;99.90
1806;DHT22;901;48.142;11.516;2023-05-10T13:12:45;15.10;99.90
1806;DHT22;901;48.142;11.516;2023-05-10T13:15:12;15.80;99.90
1806;DHT22;901;48.142;11.516;2023-05-10T13:17:39;15.90;99.90
1806;DHT22;901;48.142;11.516;2023-05-10T13:20:10;16.10;99.90
1806;DHT22;901;48.142;11.516;2023-05-10T13:22:37;16.20;99.90
1806;DHT22;901;48.142;11.516;2023-05-10T13:25:04;16.20;99.90
1806;DHT22;901;48.142;11.516;2023-05-10T13:27:31;16.30;99.90
1806;DHT22;901;48.142;11.516;2023-05-10T13:29:58;16.40;99.90
1806;DHT22;901;48.142;11.516;2023-05-10T13:32:25;16.40;99.90
1806;DHT22;901;48.142;11.516;2023-05-10T13:34:52;16.40;99.90
1806;DHT22;901;48.142;11.516;2023-05-10T13:37:20;16.30;99.90
1806;DHT22;901;48.142;11.516;2023-05-10T13:39:48;16.20;99.90
1806;DHT22;901;48.142;11.516;2023-05-10T13:42:14;16.10;99.90
1806;DHT22;901;48.142;11.516;2023-05-10T13:44:41;16.00;99.90
1806;DHT22;901;48.142;11.516;2023-05-10T13:47:08;16.00;99.90
1806;DHT22;901;48.142;11.516;2023-05-10T13:49:35;16.00;99.90
1806;DHT22;901;48.142;11.516;2023-05-10T13:52:03;16.00;99.90
1806;DHT22;901;48.142;11.516;2023-05-10T13:54:33;16.00;99.90
1806;DHT22;901;48.142;11.516;2023-05-10T13:57:01;16.10;99.90
1806;DHT22;901;48.142;11.516;2023-05-10T13:59:28;16.20;99.90
1806;DHT22;901;48.142;11.516;2023-05-10T14:01:57;16.20;99.90
1806;DHT22;901;48.142;11.516;2023-05-10T14:04:23;16.20;99.90
1806;DHT22;901;48.142;11.516;2023-05-10T14:06:50;16.20;99.90
1806;DHT22;901;48.142;11.516;2023-05-10T14:09:18;16.10;99.90
1806;DHT22;901;48.142;11.516;2023-05-10T14:11:46;16.20;99.90
1806;DHT22;901;48.142;11.516;2023-05-10T14:14:13;16.30;99.90
1806;DHT22;901;48.142;11.516;2023-05-10T14:16:42;16.40;99.90
1806;DHT22;901;48.142;11.516;2023-05-10T14:19:09;16.40;99.90
1806;DHT22;901;48.142;11.516;2023-05-10T14:21:36;16.40;99.90
1806;DHT22;901;48.142;11.516;2023-05-10T14:24:03;16.40;99.90
1806;DHT22;901;48.142;11.516;2023-05-10T14:26:32;16.30;99.90
1806;DHT22;901;48.142;11.516;2023-05-10T14:29:01;16.30;99.90
1806;DHT22;901;48.142;11.516;2023-05-10T14:31:28;16.30;99.90
1806;DHT22;901;48.142;11.516;2023-05-10T14:33:55;16.20;99.90
1806;DHT22;901;48.142;11.516;2023-05-10T14:36:22;16.10;99.90
1806;DHT22;901;48.142;11.516;2023-05-10T14:38:49;15.90;99.90
1806;DHT22;901;48.142;11.516;2023-05-10T14:41:16;15.60;99.90
1806;DHT22;901;48.142;11.516;2023-05-10T14:43:43;15.50;99.90
1806;DHT22;901;48.142;11.516;2023-05-10T14:46:11;15.30;99.90
1806;DHT22;901;48.142;11.516;2023-05-10T14:48:38;15.20;99.90
1806;DHT22;901;48.142;11.516;2023-05-10T14:51:05;15.20;99.90
1806;DHT22;901;48.142;11.516;2023-05-10T14:53:32;15.10;99.90
1806;DHT22;901;48.142;11.516;2023-05-10T14:55:59;15.10;99.90
1806;DHT22;901;48.142;11.516;2023-05-10T14:58:26;15.00;99.90
1806;DHT22;901;48.142;11.516;2023-05-10T15:00:53;15.00;99.90
1806;DHT22;901;48.142;11.516;2023-05-10T15:03:21;15.00;99.90
1806;DHT22;901;48.142;11.516;2023-05-10T15:05:48;15.00;99.90
1806;DHT22;901;48.142;11.516;2023-05-10T15:08:15;14.90;99.90
1806;DHT22;901;48.142;11.516;2023-05-10T15:10:42;14.90;99.90
1806;DHT22;901;48.142;11.516;2023-05-10T15:13:08;14.70;99.90
1806;DHT22;901;48.142;11.516;2023-05-10T15:15:35;14.80;99.90
1806;DHT22;901;48.142;11.516;2023-05-10T15:18:02;14.80;99.90
1806;DHT22;901;48.142;11.516;2023-05-10T15:22:58;14.80;99.90
1806;DHT22;901;48.142;11.516;2023-05-10T15:25:25;14.70;99.90
1806;DHT22;901;48.142;11.516;2023-05-10T15:27:53;14.70;99.90
1806;DHT22;901;48.142;11.516;2023-05-10T15:30:20;14.60;99.90
1806;DHT22;901;48.142;11.516;2023-05-10T15:32:47;14.70;99.90
1806;DHT22;901;48.142;11.516;2023-05-10T15:35:14;14.60;99.90
1806;DHT22;901;48.142;11.516;2023-05-10T15:37:42;14.60;99.90
1806;DHT22;901;48.142;11.516;2023-05-10T15:40:09;14.60;99.90
1806;DHT22;901;48.142;11.516;2023-05-10T15:42:36;14.60;99.90
1806;DHT22;901;48.142;11.516;2023-05-10T15:45:04;14.50;99.90
1806;DHT22;901;48.142;11.516;2023-05-10T15:47:31;14.40;99.90
1806;DHT22;901;48.142;11.516;2023-05-10T15:49:58;14.30;99.90
1806;DHT22;901;48.142;11.516;2023-05-10T15:52:25;14.30;99.90
1806;DHT22;901;48.142;11.516;2023-05-10T15:54:54;14.20;99.90
1806;DHT22;901;48.142;11.516;2023-05-10T15:57:21;14.00;99.90
1806;DHT22;901;48.142;11.516;2023-05-10T15:59:48;13.80;99.90
1806;DHT22;901;48.142;11.516;2023-05-10T16:02:15;13.70;99.90
1806;DHT22;901;48.142;11.516;2023-05-10T16:04:43;13.70;99.90
1806;DHT22;901;48.142;11.516;2023-05-10T16:07:10;13.70;99.90
1806;DHT22;901;48.142;11.516;2023-05-10T16:09:37;13.80;99.90
1806;DHT22;901;48.142;11.516;2023-05-10T16:12:05;13.80;99.90
1806;DHT22;901;48.142;11.516;2023-05-10T16:14:33;13.90;99.90